Time;durP1;ratioP1;P1;durP2;ratioP2;P2;SDS_P1;SDS_P2;PMS_P1;PMS_P2;Temp;Humidity;BMP_temperature;BMP_pressure;BME280_temperature;BME280_humidity;BME280_pressure;Samples;Min_cycle;Max_cycle;Signal;HPM_P1;HPM_P2
2022/08/02 00:01:40;;;;;;;6.82;3.65;;;13.60;99.90;;;;;;5074986;28;20073;-69
2022/08/02 00:04:06;;;;;;;8.85;4.15;;;13.60;99.90;;;;;;5056801;28;20123;-69
2022/08/02 00:06:32;;;;;;;11.55;4.50;;;13.50;99.90;;;;;;5075114;28;20127;-69
2022/08/02 00:08:57;;;;;;;8.88;4.88;;;13.60;99.90;;;;;;5074968;28;20478;-69
2022/08/02 00:11:23;;;;;;;7.05;4.25;;;13.50;99.90;;;;;;5074503;28;20044;-69
2022/08/02 00:13:49;;;;;;;10.32;4.70;;;13.50;99.90;;;;;;5074774;28;20451;-69
2022/08/02 00:16:14;;;;;;;17.58;5.07;;;13.50;99.90;;;;;;5056777;28;20453;-69
2022/08/02 00:18:40;;;;;;;9.65;4.68;;;13.50;99.90;;;;;;5074571;28;20127;-69
2022/08/02 00:21:06;;;;;;;10.10;4.50;;;13.50;99.90;;;;;;5074540;28;20475;-69
2022/08/02 00:23:31;;;;;;;13.52;4.40;;;13.50;99.90;;;;;;5074499;28;20036;-69
2022/08/02 00:25:57;;;;;;;8.30;4.13;;;13.60;99.90;;;;;;5074513;28;20045;-69
2022/08/02 00:28:24;;;;;;;6.72;4.07;;;13.60;99.90;;;;;;5074438;28;20049;-69
2022/08/02 00:30:50;;;;;;;14.38;5.47;;;13.50;99.90;;;;;;5074148;28;20090;-69
2022/08/02 00:33:15;;;;;;;7.90;4.20;;;13.40;99.90;;;;;;5040055;28;20044;-69
2022/08/02 00:35:41;;;;;;;10.20;5.22;;;13.40;99.90;;;;;;5074435;28;20041;-69
2022/08/02 00:38:07;;;;;;;5.90;4.05;;;13.30;99.90;;;;;;5056620;28;20039;-69
2022/08/02 00:40:32;;;;;;;11.77;4.72;;;13.30;99.90;;;;;;5055933;28;20052;-69
2022/08/02 00:43:05;;;;;;;7.20;4.35;;;13.20;99.90;;;;;;5056484;28;20041;-69
2022/08/02 00:45:31;;;;;;;6.50;4.30;;;13.10;99.90;;;;;;5056229;28;20055;-69
2022/08/02 00:47:57;;;;;;;8.40;4.72;;;13.10;99.90;;;;;;5056076;28;20032;-69
2022/08/02 00:50:23;;;;;;;6.30;4.20;;;13.10;99.90;;;;;;5073836;28;20391;-69
2022/08/02 00:52:48;;;;;;;11.35;5.15;;;13.10;99.90;;;;;;5056156;28;20433;-69
2022/08/02 00:55:14;;;;;;;6.82;4.70;;;13.10;99.90;;;;;;5073751;28;20123;-69
2022/08/02 00:57:39;;;;;;;7.95;5.20;;;13.00;99.90;;;;;;5073900;28;20040;-69
2022/08/02 01:00:06;;;;;;;9.40;5.30;;;13.00;99.90;;;;;;5073586;28;20047;-69
2022/08/02 01:02:32;;;;;;;8.68;4.50;;;13.10;99.90;;;;;;5055838;28;20054;-69
2022/08/02 01:04:57;;;;;;;8.65;4.93;;;13.10;99.90;;;;;;5073838;28;20115;-69
2022/08/02 01:07:23;;;;;;;7.65;4.03;;;13.00;99.90;;;;;;5073991;28;20500;-69
2022/08/02 01:09:49;;;;;;;9.23;4.85;;;13.00;99.90;;;;;;5073486;28;20032;-69
2022/08/02 01:12:15;;;;;;;13.02;5.15;;;13.00;99.90;;;;;;5055891;28;20044;-69
2022/08/02 01:14:43;;;;;;;10.05;4.57;;;13.10;99.90;;;;;;5073642;28;20041;-69
2022/08/02 01:17:46;;;;;;;6.72;4.30;;;13.10;99.90;;;;;;5073587;28;20052;-69
2022/08/02 01:20:55;;;;;;;9.63;4.15;;;13.00;99.90;;;;;;5060160;28;20395;-68
2022/08/02 01:23:58;;;;;;;9.80;4.50;;;13.00;99.90;;;;;;5073406;28;20525;-69
2022/08/02 01:26:37;;;;;;;5.97;4.20;;;13.00;99.90;;;;;;5055430;28;20607;-69
2022/08/02 01:29:07;;;;;;;8.43;4.57;;;13.00;99.90;;;;;;5073434;28;20058;-69
2022/08/02 01:31:35;;;;;;;8.02;4.15;;;13.00;99.90;;;;;;5055450;28;20080;-69
2022/08/02 01:34:42;;;;;;;11.50;4.55;;;12.90;99.90;;;;;;5073392;28;20044;-68
2022/08/02 01:37:16;;;;;;;8.60;4.70;;;12.90;99.90;;;;;;5062279;28;20052;-69
2022/08/02 01:39:44;;;;;;;8.88;4.85;;;12.90;99.90;;;;;;5072952;28;20090;-69
2022/08/02 01:42:11;;;;;;;14.95;6.18;;;12.90;99.90;;;;;;5072931;28;20415;-69
2022/08/02 01:44:40;;;;;;;12.35;5.97;;;12.90;99.90;;;;;;5073176;28;20067;-69
2022/08/02 01:47:16;;;;;;;8.75;5.53;;;12.80;99.90;;;;;;5073133;28;20033;-69
2022/08/02 01:49:46;;;;;;;14.25;6.20;;;12.90;99.90;;;;;;5055425;28;20523;-69
2022/08/02 01:52:22;;;;;;;10.77;5.72;;;12.80;99.90;;;;;;5072862;28;20119;-69
2022/08/02 01:54:59;;;;;;;10.15;5.47;;;12.90;99.90;;;;;;5054776;28;20036;-69
2022/08/02 01:57:28;;;;;;;10.60;5.88;;;12.90;99.90;;;;;;5072887;28;20056;-69
2022/08/02 01:59:56;;;;;;;10.23;5.55;;;12.90;99.90;;;;;;5072555;28;20119;-69
2022/08/02 02:02:23;;;;;;;8.52;6.25;;;12.80;99.90;;;;;;5072717;28;20086;-69
2022/08/02 02:04:51;;;;;;;12.20;5.38;;;12.80;99.90;;;;;;5072945;28;20456;-69
2022/08/02 02:07:18;;;;;;;10.02;5.47;;;12.70;99.90;;;;;;5055104;28;20071;-69
2022/08/02 02:09:45;;;;;;;14.50;6.32;;;12.80;99.90;;;;;;5054398;28;20055;-69
2022/08/02 02:12:14;;;;;;;13.10;6.10;;;12.80;99.90;;;;;;5054943;28;20051;-69
2022/08/02 02:14:42;;;;;;;11.55;4.55;;;12.70;99.90;;;;;;5072481;28;20047;-69
2022/08/02 02:17:09;;;;;;;12.40;5.55;;;12.70;99.90;;;;;;5072946;28;20548;-69
2022/08/02 02:19:36;;;;;;;12.57;5.28;;;12.70;99.90;;;;;;5054532;28;20115;-69
2022/08/02 02:22:02;;;;;;;12.05;5.43;;;12.70;99.90;;;;;;5072106;28;20041;-69
2022/08/02 02:24:27;;;;;;;13.80;6.53;;;12.70;99.90;;;;;;5054670;28;20063;-69
2022/08/02 02:26:53;;;;;;;11.23;5.20;;;12.60;99.90;;;;;;5072334;28;20043;-69
2022/08/02 02:29:26;;;;;;;10.82;5.22;;;12.70;99.90;;;;;;5054129;28;20395;-71
2022/08/02 02:31:54;;;;;;;9.50;4.63;;;12.60;99.90;;;;;;5054255;28;20048;-71
2022/08/02 02:34:30;;;;;;;10.27;4.55;;;12.50;99.90;;;;;;5072042;28;20040;-72
2022/08/02 02:36:59;;;;;;;9.55;5.47;;;12.50;99.90;;;;;;5072006;28;20494;-71
2022/08/02 02:39:27;;;;;;;11.30;4.88;;;12.40;99.90;;;;;;5071787;28;20047;-71
2022/08/02 02:41:55;;;;;;;11.68;4.43;;;12.40;99.90;;;;;;5071989;28;20537;-71
2022/08/02 02:44:21;;;;;;;8.95;4.50;;;12.40;99.90;;;;;;5071967;28;20051;-71
2022/08/02 02:46:51;;;;;;;10.73;5.10;;;12.40;99.90;;;;;;5053971;28;20040;-71
2022/08/02 02:49:18;;;;;;;9.23;5.22;;;12.40;99.90;;;;;;5071896;28;20077;-71
2022/08/02 02:51:44;;;;;;;11.68;5.22;;;12.30;99.90;;;;;;5072066;28;20413;-71
2022/08/02 02:54:12;;;;;;;10.88;5.70;;;12.30;99.90;;;;;;5071818;28;20044;-71
2022/08/02 02:56:39;;;;;;;7.28;4.63;;;12.30;99.90;;;;;;5071979;28;20048;-71
2022/08/02 02:59:07;;;;;;;8.07;4.88;;;12.30;99.90;;;;;;5071981;28;20040;-69
2022/08/02 03:01:33;;;;;;;7.68;4.90;;;12.40;99.90;;;;;;5072130;28;20059;-69
2022/08/02 03:04:01;;;;;;;7.43;5.15;;;12.30;99.90;;;;;;5071883;28;20040;-69
2022/08/02 03:06:28;;;;;;;9.73;4.95;;;12.20;99.90;;;;;;5053843;28;20498;-69
2022/08/02 03:08:54;;;;;;;9.05;5.40;;;12.30;99.90;;;;;;5071744;28;20032;-69
2022/08/02 03:11:20;;;;;;;11.10;5.40;;;12.30;99.90;;;;;;5054471;28;20506;-69
2022/08/02 03:13:46;;;;;;;11.05;5.90;;;12.10;99.90;;;;;;5054671;28;20123;-69
2022/08/02 03:16:12;;;;;;;15.15;6.35;;;12.10;99.90;;;;;;5054214;28;20577;-69
2022/08/02 03:18:40;;;;;;;13.38;5.10;;;12.10;99.90;;;;;;5072542;28;20072;-69
2022/08/02 03:21:11;;;;;;;11.25;6.13;;;12.10;99.90;;;;;;5054055;28;20036;-69
2022/08/02 03:23:39;;;;;;;11.15;5.90;;;12.10;99.90;;;;;;5071756;28;20048;-69
2022/08/02 03:26:05;;;;;;;10.10;4.95;;;12.10;99.90;;;;;;5053669;28;20047;-69
2022/08/02 03:28:31;;;;;;;13.88;6.55;;;12.10;99.90;;;;;;5053531;28;20048;-70
2022/08/02 03:30:57;;;;;;;12.10;6.03;;;12.10;99.90;;;;;;5053451;28;20059;-70
2022/08/02 03:33:24;;;;;;;10.05;5.72;;;12.10;99.90;;;;;;5071808;28;20032;-70
2022/08/02 03:35:52;;;;;;;9.73;6.32;;;12.10;99.90;;;;;;5075471;28;20041;-70
2022/08/02 03:38:20;;;;;;;11.70;5.95;;;12.10;99.90;;;;;;5075633;28;20682;-70
2022/08/02 03:40:47;;;;;;;10.95;6.43;;;12.10;99.90;;;;;;5075077;28;20517;-70
2022/08/02 03:43:14;;;;;;;14.15;6.22;;;12.10;99.90;;;;;;5075717;28;20032;-70
2022/08/02 03:45:43;;;;;;;12.75;6.72;;;12.10;99.90;;;;;;5075457;28;20036;-70
2022/08/02 03:48:11;;;;;;;9.80;5.50;;;12.10;99.90;;;;;;5075406;28;20094;-70
2022/08/02 03:50:38;;;;;;;9.55;5.80;;;12.10;99.90;;;;;;5075141;28;20043;-70
2022/08/02 03:53:05;;;;;;;12.90;6.57;;;12.10;99.90;;;;;;5075263;28;20032;-70
2022/08/02 03:55:31;;;;;;;13.48;6.15;;;12.20;99.90;;;;;;5056663;28;20094;-70
2022/08/02 03:57:57;;;;;;;11.85;7.53;;;12.20;99.90;;;;;;5075253;28;20036;-70
2022/08/02 04:00:23;;;;;;;13.85;6.60;;;12.10;99.90;;;;;;5074852;28;20498;-70
2022/08/02 04:02:49;;;;;;;12.40;6.90;;;12.30;99.90;;;;;;5075152;28;20044;-69
2022/08/02 04:05:17;;;;;;;12.73;5.97;;;12.20;99.90;;;;;;5075130;28;20039;-70
2022/08/02 04:07:42;;;;;;;8.73;6.00;;;12.30;99.90;;;;;;5057748;28;20040;-70
2022/08/02 04:10:09;;;;;;;11.43;6.20;;;12.30;99.90;;;;;;5074935;28;20032;-70
2022/08/02 04:12:35;;;;;;;13.98;6.78;;;12.20;99.90;;;;;;5075114;28;20037;-70
2022/08/02 04:15:04;;;;;;;11.90;6.25;;;12.30;99.90;;;;;;5074965;28;20040;-70
2022/08/02 04:17:32;;;;;;;11.43;5.82;;;12.30;99.90;;;;;;5074842;28;20472;-70
2022/08/02 04:20:03;;;;;;;12.82;7.03;;;12.30;99.90;;;;;;5074442;28;20498;-70
2022/08/02 04:22:36;;;;;;;13.30;6.25;;;12.20;99.90;;;;;;5074481;28;20037;-70
2022/08/02 04:25:05;;;;;;;10.77;5.82;;;12.20;99.90;;;;;;5074606;28;20082;-70
2022/08/02 04:27:31;;;;;;;12.80;6.78;;;12.30;99.90;;;;;;5056839;28;20465;-70
2022/08/02 04:29:58;;;;;;;12.63;6.25;;;12.20;99.90;;;;;;5056377;28;20049;-70
2022/08/02 04:32:23;;;;;;;11.82;6.63;;;12.40;99.90;;;;;;5056508;28;20040;-70
2022/08/02 04:34:49;;;;;;;11.55;5.95;;;12.30;99.90;;;;;;5056397;28;20094;-70
2022/08/02 04:37:15;;;;;;;10.70;6.80;;;12.40;99.90;;;;;;5056275;28;20406;-70
2022/08/02 04:39:41;;;;;;;11.10;6.47;;;12.40;99.90;;;;;;5074280;28;20039;-70
2022/08/02 04:42:07;;;;;;;9.60;6.10;;;12.40;99.90;;;;;;5056391;28;20055;-70
2022/08/02 04:44:33;;;;;;;13.10;6.43;;;12.30;99.90;;;;;;5073999;28;20041;-70
2022/08/02 04:47:01;;;;;;;11.27;6.78;;;12.30;99.90;;;;;;5056325;28;20045;-70
2022/08/02 04:49:28;;;;;;;13.48;6.22;;;12.50;99.90;;;;;;5055876;28;20142;-70
2022/08/02 04:51:54;;;;;;;11.50;5.47;;;12.50;99.90;;;;;;5074194;28;20047;-70
2022/08/02 04:54:19;;;;;;;12.23;6.03;;;12.40;99.90;;;;;;5056167;28;20028;-70
2022/08/02 04:56:45;;;;;;;11.07;6.22;;;12.50;99.90;;;;;;5074101;28;20123;-70
2022/08/02 04:59:11;;;;;;;9.43;5.97;;;12.60;99.90;;;;;;5073829;28;20153;-70
2022/08/02 05:01:38;;;;;;;13.38;7.13;;;12.70;99.90;;;;;;5055918;28;20041;-70
2022/08/02 05:04:04;;;;;;;15.48;6.65;;;12.80;99.90;;;;;;5073792;28;20037;-70
2022/08/02 05:06:30;;;;;;;8.95;6.20;;;12.90;99.90;;;;;;5073817;28;20115;-70
2022/08/02 05:08:56;;;;;;;10.57;7.20;;;13.10;99.90;;;;;;5073868;28;20068;-70
2022/08/02 05:11:23;;;;;;;13.27;7.20;;;13.10;99.90;;;;;;5055685;28;20083;-70
2022/08/02 05:13:49;;;;;;;12.30;7.85;;;13.40;99.90;;;;;;5055615;28;20123;-70
2022/08/02 05:16:15;;;;;;;9.95;7.03;;;13.50;99.90;;;;;;5055877;28;20060;-70
2022/08/02 05:18:41;;;;;;;12.10;6.82;;;13.70;99.90;;;;;;5055876;28;20494;-70
2022/08/02 05:21:06;;;;;;;13.50;7.55;;;14.00;99.90;;;;;;5073547;28;20170;-70
2022/08/02 05:23:32;;;;;;;13.00;6.90;;;14.10;99.90;;;;;;5055505;28;20036;-70
2022/08/02 05:25:58;;;;;;;11.95;7.38;;;14.40;99.90;;;;;;5073499;28;20048;-70
2022/08/02 05:28:24;;;;;;;14.70;6.28;;;14.40;99.90;;;;;;5073490;28;20119;-70
2022/08/02 05:30:50;;;;;;;10.20;6.80;;;14.60;99.90;;;;;;5073110;28;20036;-70
2022/08/02 05:33:16;;;;;;;13.50;6.93;;;14.90;99.90;;;;;;5073251;28;20068;-71
2022/08/02 05:35:41;;;;;;;12.00;6.10;;;15.10;99.90;;;;;;5073359;28;20041;-70
2022/08/02 05:38:07;;;;;;;14.00;7.05;;;15.20;99.90;;;;;;5055314;28;20052;-70
2022/08/02 05:40:33;;;;;;;10.18;6.82;;;15.50;99.90;;;;;;5038552;28;20038;-71
2022/08/02 05:42:58;;;;;;;14.98;6.82;;;15.70;99.90;;;;;;5055559;28;20044;-71
2022/08/02 05:45:24;;;;;;;11.27;6.55;;;15.70;99.90;;;;;;5055265;28;20076;-70
2022/08/02 05:47:50;;;;;;;14.45;5.93;;;16.00;99.90;;;;;;5072971;28;20048;-71
2022/08/02 05:50:16;;;;;;;13.30;6.07;;;16.10;99.90;;;;;;5072664;28;20048;-71
2022/08/02 05:52:48;;;;;;;18.88;6.47;;;16.30;99.90;;;;;;5055068;28;20056;-71
2022/08/02 05:55:25;;;;;;;9.90;6.50;;;16.40;99.90;;;;;;5096675;22;20055;-69
2022/08/02 05:57:53;;;;;;;11.93;5.93;;;16.80;99.90;;;;;;5092228;28;20516;-69
2022/08/02 06:00:20;;;;;;;10.15;5.82;;;16.90;99.90;;;;;;5092097;28;20490;-69
2022/08/02 06:03:02;;;;;;;10.90;6.07;;;17.10;99.90;;;;;;5093360;28;20097;-69
2022/08/02 06:05:32;;;;;;;8.13;4.75;;;17.40;99.90;;;;;;5091622;28;20047;-69
2022/08/02 06:07:58;;;;;;;9.80;6.03;;;17.50;99.90;;;;;;5093098;28;20044;-69
2022/08/02 06:10:27;;;;;;;10.45;6.15;;;17.70;99.90;;;;;;5092466;28;20558;-69
2022/08/02 06:13:09;;;;;;;12.35;5.85;;;18.00;99.90;;;;;;5092597;28;20153;-69
2022/08/02 06:15:36;;;;;;;9.73;5.57;;;18.20;99.90;;;;;;5092760;28;20510;-69
2022/08/02 06:18:03;;;;;;;11.65;5.30;;;18.40;99.90;;;;;;5092648;28;20543;-70
2022/08/02 06:20:34;;;;;;;12.43;5.30;;;18.60;99.90;;;;;;5092814;28;20040;-70
2022/08/02 06:23:04;;;;;;;10.40;5.20;;;18.80;99.90;;;;;;5092661;28;20032;-69
2022/08/02 06:25:32;;;;;;;13.25;5.97;;;18.80;99.90;;;;;;5092517;28;20105;-70
2022/08/02 06:27:59;;;;;;;12.38;5.35;;;19.00;99.90;;;;;;5092667;28;20040;-70
2022/08/02 06:30:25;;;;;;;8.75;4.57;;;19.20;99.90;;;;;;5092156;28;20043;-70
2022/08/02 06:32:51;;;;;;;9.55;5.30;;;19.40;99.90;;;;;;5092491;28;20028;-70
2022/08/02 06:35:17;;;;;;;8.88;4.38;;;19.50;99.90;;;;;;5092347;28;20111;-70
2022/08/02 06:37:55;;;;;;;12.05;4.85;;;19.70;99.90;;;;;;5092199;28;20123;-70
2022/08/02 06:40:30;;;;;;;6.55;3.72;;;19.90;99.90;;;;;;5090825;28;20032;-70
2022/08/02 06:43:16;;;;;;;10.13;4.80;;;20.30;99.80;;;;;;5092384;28;20036;-70
2022/08/02 06:45:42;;;;;;;10.18;4.07;;;20.30;99.10;;;;;;5090861;28;20040;-70
2022/08/02 06:48:09;;;;;;;6.47;4.32;;;20.50;98.80;;;;;;5092160;28;20032;-70
2022/08/02 06:50:37;;;;;;;8.57;4.05;;;20.70;98.30;;;;;;5091708;28;20066;-70
2022/08/02 06:53:05;;;;;;;7.18;3.28;;;20.80;97.80;;;;;;5090395;28;20040;-70
2022/08/02 06:55:31;;;;;;;7.78;3.45;;;20.80;97.60;;;;;;5090345;28;20093;-71
2022/08/02 06:57:57;;;;;;;6.07;2.83;;;20.90;97.60;;;;;;5090816;28;20096;-70
2022/08/02 07:00:23;;;;;;;11.48;3.70;;;21.00;97.60;;;;;;5090432;28;20379;-70
2022/08/02 07:02:49;;;;;;;6.32;3.55;;;21.10;97.50;;;;;;5091834;28;20472;-70
2022/08/02 07:05:15;;;;;;;6.82;3.03;;;21.40;96.90;;;;;;5092025;28;20375;-69
2022/08/02 07:07:41;;;;;;;11.13;3.08;;;21.70;96.00;;;;;;5091857;28;20050;-69
2022/08/02 07:10:07;;;;;;;6.43;2.80;;;21.90;95.30;;;;;;5090445;28;20450;-70
2022/08/02 07:12:34;;;;;;;7.18;2.45;;;22.10;94.90;;;;;;5091868;28;20062;-69
2022/08/02 07:15:01;;;;;;;7.40;1.92;;;22.30;93.90;;;;;;5091801;28;20042;-69
2022/08/02 07:17:28;;;;;;;8.75;2.50;;;22.40;92.80;;;;;;5091471;28;20554;-69
2022/08/02 07:19:55;;;;;;;7.82;2.10;;;22.80;92.00;;;;;;5091629;28;20497;-69
2022/08/02 07:22:22;;;;;;;7.13;2.33;;;22.80;90.20;;;;;;5091944;28;20039;-69
2022/08/02 07:24:48;;;;;;;6.78;2.65;;;22.80;89.70;;;;;;5091742;28;20036;-69
2022/08/02 07:27:13;;;;;;;5.93;2.03;;;22.70;87.50;;;;;;5091669;28;20484;-70
2022/08/02 07:29:40;;;;;;;5.47;2.00;;;22.70;87.10;;;;;;5091278;28;20111;-69
2022/08/02 07:32:05;;;;;;;5.45;2.08;;;22.70;86.40;;;;;;5091448;28;20040;-70
2022/08/02 07:34:31;;;;;;;5.18;2.30;;;22.70;86.10;;;;;;5091528;28;20082;-70
2022/08/02 07:36:56;;;;;;;7.47;2.00;;;22.80;83.90;;;;;;5091329;28;20123;-70
2022/08/02 07:39:22;;;;;;;9.05;1.73;;;23.10;83.30;;;;;;5091245;28;20044;-70
2022/08/02 07:41:50;;;;;;;8.25;2.25;;;23.10;81.00;;;;;;5091689;28;20409;-70
2022/08/02 07:44:17;;;;;;;6.18;1.90;;;23.40;81.00;;;;;;5091421;28;20044;-70
2022/08/02 07:46:43;;;;;;;6.57;1.52;;;23.40;79.50;;;;;;5091356;28;20061;-70
2022/08/02 07:49:09;;;;;;;4.93;1.90;;;23.70;80.80;;;;;;5091578;28;20055;-71
2022/08/02 07:51:35;;;;;;;6.47;1.95;;;23.80;79.30;;;;;;5091271;28;20040;-70
2022/08/02 07:54:01;;;;;;;6.00;1.75;;;23.90;77.80;;;;;;5089925;28;20036;-70
2022/08/02 07:56:27;;;;;;;3.20;1.10;;;24.10;75.40;;;;;;5091050;28;20066;-70
2022/08/02 07:58:53;;;;;;;6.47;1.70;;;24.30;73.20;;;;;;5090913;28;20062;-70
2022/08/02 08:01:18;;;;;;;3.92;1.63;;;24.50;72.40;;;;;;5090787;28;20562;-70
2022/08/02 08:03:44;;;;;;;3.47;1.45;;;24.70;70.00;;;;;;5091528;28;20044;-70
2022/08/02 08:06:10;;;;;;;4.00;1.30;;;24.40;67.70;;;;;;5091454;28;20512;-70
2022/08/02 08:08:36;;;;;;;2.45;1.10;;;24.60;66.80;;;;;;5090125;28;20063;-70
2022/08/02 08:11:02;;;;;;;5.50;1.20;;;24.70;64.90;;;;;;5091074;28;20058;-70
2022/08/02 08:13:28;;;;;;;4.05;1.20;;;24.80;63.80;;;;;;5091239;28;20035;-70
2022/08/02 08:15:53;;;;;;;4.70;1.20;;;25.00;63.30;;;;;;5089699;28;20147;-70
2022/08/02 08:18:20;;;;;;;3.00;1.00;;;25.10;62.40;;;;;;5090865;28;20036;-70
2022/08/02 08:20:46;;;;;;;3.00;1.00;;;25.10;62.40;;;;;;5093294;28;20078;-70
2022/08/02 08:23:11;;;;;;;4.28;0.90;;;25.20;61.20;;;;;;5094377;28;20410;-69
2022/08/02 08:25:37;;;;;;;2.85;1.15;;;25.30;59.50;;;;;;5094462;28;20055;-70
2022/08/02 08:28:03;;;;;;;2.85;1.13;;;25.20;57.90;;;;;;5094714;28;20090;-70
2022/08/02 08:30:28;;;;;;;2.78;1.00;;;25.20;56.90;;;;;;5094713;28;20066;-71
2022/08/02 08:32:54;;;;;;;2.78;0.85;;;25.10;56.30;;;;;;5094819;28;20489;-70
2022/08/02 08:35:19;;;;;;;2.60;0.75;;;25.10;56.70;;;;;;5094630;28;20032;-69
2022/08/02 08:37:45;;;;;;;4.03;1.00;;;25.20;56.10;;;;;;5094327;28;20119;-69
2022/08/02 08:40:11;;;;;;;4.85;1.00;;;25.30;55.90;;;;;;5092795;28;20040;-70
2022/08/02 08:42:38;;;;;;;5.47;1.05;;;25.50;55.90;;;;;;5092658;28;20036;-69
2022/08/02 08:45:06;;;;;;;0.93;0.60;;;25.20;53.40;;;;;;5094454;28;20503;-70
2022/08/02 08:47:36;;;;;;;3.20;0.88;;;25.30;53.40;;;;;;5094631;28;20042;-70
2022/08/02 08:50:17;;;;;;;3.28;0.90;;;25.50;53.70;;;;;;5094338;28;20082;-70
2022/08/02 08:53:05;;;;;;;2.40;0.68;;;25.50;52.40;;;;;;5094265;28;20558;-70
2022/08/02 08:55:32;;;;;;;1.27;0.52;;;25.60;53.60;;;;;;5093036;28;20494;-69
2022/08/02 08:57:59;;;;;;;3.95;1.08;;;25.60;53.70;;;;;;5094230;28;20039;-70
2022/08/02 09:00:26;;;;;;;2.80;0.60;;;25.80;53.70;;;;;;5092777;28;20044;-70
2022/08/02 09:02:52;;;;;;;1.60;0.60;;;25.80;53.00;;;;;;5094210;28;20036;-70
2022/08/02 09:05:18;;;;;;;1.63;0.68;;;26.00;52.20;;;;;;5094075;28;20036;-70
2022/08/02 09:07:50;;;;;;;2.25;0.68;;;25.90;51.70;;;;;;5094012;28;20047;-70
2022/08/02 09:10:34;;;;;;;2.03;0.70;;;26.00;49.90;;;;;;5093951;28;20052;-70
2022/08/02 09:13:23;;;;;;;2.15;0.80;;;26.00;49.20;;;;;;5092677;28;20289;-70
2022/08/02 09:15:54;;;;;;;4.00;1.30;;;26.10;50.90;;;;;;5093822;28;20036;-70
2022/08/02 09:18:27;;;;;;;2.17;0.73;;;26.20;51.90;;;;;;5093815;28;20093;-70
2022/08/02 09:20:56;;;;;;;3.20;0.85;;;26.20;52.20;;;;;;5093627;28;20118;-70
2022/08/02 09:23:22;;;;;;;3.08;1.30;;;26.50;52.30;;;;;;5092579;28;20066;-70
2022/08/02 09:25:59;;;;;;;3.63;0.90;;;26.40;52.20;;;;;;5092266;28;20044;-70
2022/08/02 09:28:30;;;;;;;2.55;0.88;;;26.50;51.30;;;;;;5093678;28;20067;-70
2022/08/02 09:31:08;;;;;;;3.25;0.90;;;26.70;53.20;;;;;;5091202;28;20489;-70
2022/08/02 09:33:35;;;;;;;2.42;0.85;;;26.80;52.30;;;;;;5093460;28;20044;-70
2022/08/02 09:36:05;;;;;;;2.72;0.90;;;26.70;52.70;;;;;;5093397;28;20401;-70
2022/08/02 09:38:32;;;;;;;1.38;0.80;;;27.00;53.40;;;;;;5093585;28;20607;-70
2022/08/02 09:40:58;;;;;;;2.63;1.00;;;27.00;53.10;;;;;;5093069;28;20028;-70
2022/08/02 09:43:41;;;;;;;2.20;0.82;;;26.70;51.60;;;;;;5093600;28;20052;-70
2022/08/02 09:46:11;;;;;;;;;;;26.70;50.60;;;;;;5093815;28;20063;-70
2022/08/02 09:48:52;;;;;;;4.07;1.33;;;26.40;51.80;;;;;;5093243;28;20389;-70
2022/08/02 09:51:27;;;;;;;3.20;0.90;;;26.50;51.70;;;;;;5093032;28;20040;-70
2022/08/02 09:54:07;;;;;;;2.50;0.80;;;26.70;53.20;;;;;;5093325;28;20036;-68
2022/08/02 09:56:42;;;;;;;3.72;1.42;;;26.70;52.40;;;;;;5092503;28;20051;-69
2022/08/02 09:59:09;;;;;;;2.38;1.08;;;26.30;52.00;;;;;;5092667;28;20051;-69
2022/08/02 10:01:36;;;;;;;2.10;1.02;;;26.30;53.30;;;;;;5092812;28;20119;-69
2022/08/02 10:04:04;;;;;;;4.70;1.00;;;26.20;53.30;;;;;;5092869;28;20036;-69
2022/08/02 10:06:31;;;;;;;5.30;1.35;;;26.30;53.90;;;;;;5093125;28;20036;-69
2022/08/02 10:08:57;;;;;;;4.55;1.52;;;26.50;56.20;;;;;;5092880;28;20413;-69
2022/08/02 10:11:26;;;;;;;5.00;1.70;;;26.60;55.90;;;;;;5092750;28;20111;-69
2022/08/02 10:13:53;;;;;;;2.92;1.30;;;26.50;54.60;;;;;;5092754;28;20067;-68
2022/08/02 10:16:22;;;;;;;5.40;1.60;;;26.40;56.60;;;;;;5092741;28;20398;-69
2022/08/02 10:18:55;;;;;;;4.30;1.67;;;26.50;57.30;;;;;;5092687;28;20032;-69
2022/08/02 10:21:28;;;;;;;4.93;1.88;;;26.60;56.00;;;;;;5092561;28;20039;-69
2022/08/02 10:23:59;;;;;;;;;;;26.60;55.70;;;;;;5093184;28;20088;-69
2022/08/02 10:26:25;;;;;;;6.10;1.75;;;26.50;58.40;;;;;;5092672;28;19955;-69
2022/08/02 10:28:52;;;;;;;3.80;1.85;;;26.30;58.10;;;;;;5092435;28;20431;-69
2022/08/02 10:31:24;;;;;;;5.63;2.10;;;26.30;58.10;;;;;;5092128;28;20508;-69
2022/08/02 10:33:51;;;;;;;6.20;1.88;;;26.30;57.20;;;;;;5092568;28;20534;-69
2022/08/02 10:36:18;;;;;;;5.55;2.50;;;26.30;58.10;;;;;;5092484;28;20040;-69
2022/08/02 10:38:45;;;;;;;3.53;2.00;;;26.40;59.20;;;;;;5092439;28;20043;-69
2022/08/02 10:41:11;;;;;;;3.88;2.45;;;26.30;59.00;;;;;;5091997;28;20040;-69
2022/08/02 10:43:42;;;;;;;4.80;2.00;;;26.30;59.00;;;;;;5091642;28;20113;-70
2022/08/02 10:46:30;;;;;;;4.63;2.17;;;26.30;59.00;;;;;;5091018;28;20048;-69
2022/08/02 10:49:07;;;;;;;4.85;2.03;;;26.30;59.00;;;;;;5092239;28;20040;-70
2022/08/02 10:51:52;;;;;;;4.95;2.10;;;26.30;59.70;;;;;;5091907;28;20401;-70
2022/08/02 10:54:19;;;;;;;6.65;2.85;;;26.40;62.80;;;;;;5092102;28;20047;-70
2022/08/02 10:56:50;;;;;;;8.02;2.70;;;26.40;60.70;;;;;;5091881;28;20518;-71
2022/08/02 10:59:31;;;;;;;5.22;2.53;;;26.50;60.40;;;;;;5091939;28;20176;-70
2022/08/02 11:02:01;;;;;;;6.65;2.42;;;26.50;61.70;;;;;;5090276;28;20036;-70
2022/08/02 11:04:59;;;;;;;8.82;3.30;;;26.50;62.30;;;;;;5089197;28;20118;-70
2022/08/02 11:07:46;;;;;;;6.07;2.92;;;26.30;63.40;;;;;;5090018;28;20052;-70
2022/08/02 11:10:37;;;;;;;6.45;2.50;;;26.40;63.50;;;;;;5091063;28;20043;-70
2022/08/02 11:13:14;;;;;;;5.53;2.45;;;26.50;61.90;;;;;;5090186;28;20032;-70
2022/08/02 11:16:03;;;;;;;3.53;2.17;;;26.50;61.50;;;;;;5089871;28;20032;-70
2022/08/02 11:18:50;;;;;;;4.38;2.60;;;26.50;62.30;;;;;;5091305;28;20040;-71
2022/08/02 11:21:23;;;;;;;6.85;3.00;;;26.50;62.90;;;;;;5091477;28;20131;-70
2022/08/02 11:23:49;;;;;;;6.20;3.00;;;26.40;63.50;;;;;;5091927;28;20044;-70
2022/08/02 11:26:30;;;;;;;4.07;2.75;;;26.30;64.80;;;;;;5091807;28;20401;-71
2022/08/02 11:28:57;;;;;;;6.80;2.45;;;26.10;65.60;;;;;;5091705;28;20036;-70
2022/08/02 11:31:22;;;;;;;5.63;1.88;;;26.00;65.20;;;;;;5091303;28;20036;-70
2022/08/02 11:33:49;;;;;;;6.38;2.00;;;26.00;64.30;;;;;;5091761;28;20092;-70
2022/08/02 11:36:15;;;;;;;4.13;2.20;;;25.90;65.40;;;;;;5091536;28;20047;-70
2022/08/02 11:38:41;;;;;;;4.38;2.25;;;25.90;67.20;;;;;;5091557;28;20546;-70
2022/08/02 11:41:07;;;;;;;4.45;2.08;;;25.80;66.20;;;;;;5091186;28;20040;-71
2022/08/02 11:43:33;;;;;;;4.22;2.65;;;25.80;65.60;;;;;;5091373;28;20489;-70
2022/08/02 11:46:03;;;;;;;7.57;2.65;;;25.80;65.50;;;;;;5090948;28;20043;-70
2022/08/02 11:48:36;;;;;;;5.97;2.45;;;25.80;66.50;;;;;;5091697;28;20036;-71
2022/08/02 11:51:16;;;;;;;4.95;2.08;;;25.80;67.70;;;;;;5091308;28;20054;-70
2022/08/02 11:53:53;;;;;;;4.47;2.58;;;25.80;67.90;;;;;;5091560;28;20032;-70
2022/08/02 11:56:27;;;;;;;4.70;2.05;;;25.80;67.40;;;;;;5094851;28;20402;-70
2022/08/02 11:59:09;;;;;;;6.93;2.28;;;25.60;67.20;;;;;;5094168;28;20406;-71
2022/08/02 12:01:37;;;;;;;6.72;2.70;;;25.50;68.90;;;;;;5095323;28;20508;-70
2022/08/02 12:04:04;;;;;;;5.03;2.17;;;25.40;68.50;;;;;;5095471;28;20036;-71
2022/08/02 12:06:31;;;;;;;4.13;2.67;;;25.40;69.80;;;;;;5095321;28;20050;-70
2022/08/02 12:09:04;;;;;;;4.90;2.58;;;25.50;69.50;;;;;;5095238;28;20044;-70
2022/08/02 12:11:29;;;;;;;5.03;2.70;;;25.60;69.90;;;;;;5095060;28;20032;-70
2022/08/02 12:13:56;;;;;;;5.93;2.65;;;25.70;70.60;;;;;;5095065;28;20119;-70
2022/08/02 12:19:21;;;;;;;7.28;3.33;;;25.70;69.80;;;;;;5094880;28;20082;-70
2022/08/02 12:22:04;;;;;;;4.57;3.00;;;25.70;70.80;;;;;;5094969;28;20040;-70
2022/08/02 12:24:30;;;;;;;7.13;2.38;;;25.80;72.40;;;;;;5093860;28;20040;-70
2022/08/02 12:26:55;;;;;;;5.45;2.50;;;25.80;72.20;;;;;;5094760;28;20558;-71
2022/08/02 12:29:31;;;;;;;7.18;2.80;;;25.80;71.50;;;;;;5094515;28;20114;-70
2022/08/02 12:31:57;;;;;;;4.95;2.40;;;25.80;71.40;;;;;;5094793;28;20446;-70
2022/08/02 12:34:23;;;;;;;5.43;2.22;;;25.80;72.00;;;;;;5092320;28;20109;-70
2022/08/02 12:37:04;;;;;;;4.40;2.00;;;25.60;70.70;;;;;;5093457;28;20083;-70
2022/08/02 12:39:37;;;;;;;4.40;1.90;;;25.60;70.60;;;;;;5074074;28;20055;-70
2022/08/02 12:42:05;;;;;;;4.28;1.67;;;25.50;70.80;;;;;;5074261;28;20098;-70
2022/08/02 12:44:31;;;;;;;2.30;1.50;;;25.50;71.20;;;;;;5072712;28;20079;-70
2022/08/02 12:47:02;;;;;;;3.22;1.58;;;25.50;70.90;;;;;;5074119;28;20047;-70
2022/08/02 12:49:28;;;;;;;2.55;1.55;;;25.50;71.40;;;;;;5072415;28;20051;-70
2022/08/02 12:51:54;;;;;;;3.60;1.90;;;25.50;71.30;;;;;;5073127;28;20511;-70
2022/08/02 12:54:22;;;;;;;8.98;2.90;;;25.50;72.70;;;;;;5074007;28;20050;-70
2022/08/02 12:56:50;;;;;;;3.47;2.22;;;25.60;72.40;;;;;;5072455;28;20032;-70